Time;durP1;ratioP1;P1;durP2;ratioP2;P2;SDS_P1;SDS_P2;PMS_P1;PMS_P2;Temp;Humidity;BMP_temperature;BMP_pressure;BME280_temperature;BME280_humidity;BME280_pressure;Samples;Min_cycle;Max_cycle;Signal;HPM_P1;HPM_P2
2022/07/03 00:00:01;;;;;;;1.90;1.80;;;18.70;50.40;;;;;;638060;224;26534;-70
2022/07/03 00:02:29;;;;;;;1.85;1.75;;;18.60;50.80;;;;;;638018;224;26534;-70
2022/07/03 00:04:57;;;;;;;1.80;1.70;;;18.60;51.20;;;;;;637762;224;26510;-70
2022/07/03 00:07:24;;;;;;;1.95;1.85;;;18.60;51.20;;;;;;637669;225;26572;-70
2022/07/03 00:09:51;;;;;;;1.67;1.67;;;18.60;51.20;;;;;;637742;224;26585;-71
2022/07/03 00:12:19;;;;;;;1.90;1.80;;;18.60;50.60;;;;;;637744;224;26797;-70
2022/07/03 00:14:46;;;;;;;1.80;1.70;;;18.60;50.90;;;;;;637732;223;26575;-70
2022/07/03 00:17:13;;;;;;;1.70;1.52;;;18.60;51.10;;;;;;637728;224;26796;-70
2022/07/03 00:19:40;;;;;;;1.80;1.70;;;18.50;51.30;;;;;;637767;223;26618;-70
2022/07/03 00:22:07;;;;;;;1.75;1.65;;;18.50;51.60;;;;;;637540;224;26787;-71
2022/07/03 00:24:44;;;;;;;1.80;1.70;;;18.40;51.20;;;;;;636965;225;26525;-70
2022/07/03 00:27:11;;;;;;;1.95;1.85;;;18.40;51.10;;;;;;637224;225;26759;-70
2022/07/03 00:29:38;;;;;;;1.70;1.70;;;18.40;51.40;;;;;;637390;224;26569;-70
2022/07/03 00:32:08;;;;;;;1.80;1.70;;;18.40;52.00;;;;;;637314;225;26994;-70
2022/07/03 00:34:36;;;;;;;1.95;1.85;;;18.30;51.70;;;;;;637388;224;26589;-70
2022/07/03 00:37:04;;;;;;;2.53;2.12;;;18.30;51.60;;;;;;637321;225;26587;-70
2022/07/03 00:39:31;;;;;;;1.85;1.70;;;18.30;51.40;;;;;;637259;224;26990;-70
2022/07/03 00:42:00;;;;;;;2.08;1.98;;;18.30;51.90;;;;;;637508;224;26563;-70
2022/07/03 00:44:28;;;;;;;1.80;1.70;;;18.20;51.60;;;;;;637489;224;26579;-71
2022/07/03 00:46:56;;;;;;;1.80;1.70;;;18.20;51.70;;;;;;637402;225;26603;-70
2022/07/03 00:49:24;;;;;;;1.67;1.58;;;18.20;51.90;;;;;;637357;225;26597;-70
2022/07/03 00:51:52;;;;;;;2.05;1.95;;;18.20;52.00;;;;;;637462;224;26583;-70
2022/07/03 00:54:20;;;;;;;2.22;1.60;;;18.20;52.00;;;;;;637361;225;26527;-70
2022/07/03 00:56:50;;;;;;;1.77;1.70;;;18.10;52.30;;;;;;638139;223;26587;-70
2022/07/03 00:59:17;;;;;;;1.87;1.77;;;18.10;52.30;;;;;;638902;224;26808;-70
2022/07/03 01:01:45;;;;;;;1.40;1.40;;;18.10;52.20;;;;;;638573;224;26507;-70
2022/07/03 01:04:17;;;;;;;1.70;1.60;;;18.20;52.30;;;;;;638263;224;26570;-70
2022/07/03 01:07:00;;;;;;;2.20;2.00;;;18.10;52.30;;;;;;637621;224;27185;-69
2022/07/03 01:09:32;;;;;;;1.90;1.80;;;18.10;52.40;;;;;;638060;224;26534;-70
2022/07/03 01:12:03;;;;;;;1.60;1.50;;;18.10;53.30;;;;;;637630;224;26523;-70
2022/07/03 01:14:37;;;;;;;1.90;1.80;;;18.00;52.80;;;;;;637525;225;26511;-70
2022/07/03 01:17:04;;;;;;;1.65;1.55;;;18.10;52.60;;;;;;637456;224;27013;-70
2022/07/03 01:19:38;;;;;;;1.77;1.67;;;18.00;53.60;;;;;;637712;224;26596;-69
2022/07/03 01:22:30;;;;;;;1.90;1.80;;;18.00;52.80;;;;;;637768;224;26547;-69
2022/07/03 01:25:17;;;;;;;2.15;2.05;;;18.00;53.70;;;;;;637660;224;26918;-70
2022/07/03 01:27:53;;;;;;;1.87;1.77;;;18.00;53.10;;;;;;636660;224;27259;-69
2022/07/03 01:30:20;;;;;;;2.20;2.10;;;18.00;53.10;;;;;;637730;224;26530;-70
2022/07/03 01:32:54;;;;;;;1.92;1.80;;;17.90;53.50;;;;;;637609;224;26552;-69
2022/07/03 01:35:22;;;;;;;2.00;1.90;;;17.90;53.50;;;;;;637351;225;26585;-69
2022/07/03 01:37:49;;;;;;;1.95;1.85;;;17.90;53.60;;;;;;637210;225;26580;-69
2022/07/03 01:40:17;;;;;;;2.25;1.87;;;17.80;53.70;;;;;;637343;225;26761;-70
2022/07/03 01:42:44;;;;;;;2.10;2.00;;;17.80;54.30;;;;;;637470;224;26581;-69
2022/07/03 01:45:11;;;;;;;2.10;2.00;;;17.80;54.10;;;;;;637439;225;26812;-69
2022/07/03 01:47:41;;;;;;;2.25;2.15;;;17.70;54.90;;;;;;637222;225;26590;-69
2022/07/03 01:50:10;;;;;;;2.20;2.10;;;17.70;54.90;;;;;;637343;226;26788;-69
2022/07/03 01:52:38;;;;;;;2.05;1.95;;;17.70;55.00;;;;;;636811;225;26571;-68
2022/07/03 01:55:06;;;;;;;2.05;1.95;;;17.70;54.70;;;;;;637269;225;26551;-67
2022/07/03 01:57:34;;;;;;;1.80;1.70;;;17.70;54.70;;;;;;637219;225;26575;-70
2022/07/03 02:00:02;;;;;;;1.90;1.80;;;17.70;54.90;;;;;;636292;225;26604;-70
2022/07/03 02:02:30;;;;;;;2.10;2.00;;;17.70;55.30;;;;;;637352;224;26572;-69
2022/07/03 02:05:00;;;;;;;2.65;2.10;;;17.60;55.20;;;;;;637037;225;26572;-69
2022/07/03 02:07:33;;;;;;;2.20;2.10;;;17.50;55.20;;;;;;637223;225;27040;-69
2022/07/03 02:10:03;;;;;;;2.00;1.90;;;17.50;55.70;;;;;;638816;223;27248;-68
2022/07/03 02:12:48;;;;;;;2.20;2.10;;;17.50;55.40;;;;;;638292;224;26516;-70
2022/07/03 02:15:17;;;;;;;2.22;1.75;;;17.50;56.20;;;;;;638178;224;26553;-70
2022/07/03 02:17:46;;;;;;;2.08;1.98;;;17.40;56.10;;;;;;637900;224;26570;-68
2022/07/03 02:20:15;;;;;;;2.50;1.73;;;17.40;55.80;;;;;;638409;224;26504;-68
2022/07/03 02:22:43;;;;;;;2.28;2.08;;;17.40;56.20;;;;;;638469;224;27061;-70
2022/07/03 02:25:29;;;;;;;2.10;2.00;;;17.40;56.10;;;;;;638405;225;26484;-70
2022/07/03 02:27:56;;;;;;;2.10;2.00;;;17.40;56.10;;;;;;637149;223;26723;-70
2022/07/03 02:30:23;;;;;;;2.20;1.87;;;17.40;56.90;;;;;;638156;224;26569;-70
2022/07/03 02:32:51;;;;;;;2.05;1.95;;;17.40;57.20;;;;;;637817;225;26535;-70
2022/07/03 02:35:22;;;;;;;2.47;2.30;;;17.30;56.70;;;;;;637605;224;26572;-71
2022/07/03 02:37:57;;;;;;;1.90;1.80;;;17.30;56.80;;;;;;637488;224;26570;-71
2022/07/03 02:40:27;;;;;;;1.90;1.80;;;17.30;56.60;;;;;;637491;223;26599;-69
2022/07/03 02:43:04;;;;;;;2.12;2.03;;;17.20;57.30;;;;;;637583;224;26774;-69
2022/07/03 02:45:33;;;;;;;2.08;1.98;;;17.20;57.70;;;;;;636876;224;26798;-71
2022/07/03 02:48:01;;;;;;;2.08;1.98;;;17.20;57.40;;;;;;636490;225;27206;-70
2022/07/03 02:50:28;;;;;;;2.10;2.00;;;17.20;57.60;;;;;;636862;225;26555;-69
2022/07/03 02:53:07;;;;;;;1.98;1.87;;;17.20;58.30;;;;;;637273;225;26797;-69
2022/07/03 02:55:42;;;;;;;2.00;1.90;;;17.20;57.90;;;;;;637163;225;26758;-69
2022/07/03 02:58:25;;;;;;;2.22;2.10;;;17.20;57.30;;;;;;637255;225;26595;-69
2022/07/03 03:00:53;;;;;;;2.05;1.95;;;17.20;57.80;;;;;;637165;223;26842;-70
2022/07/03 03:03:20;;;;;;;2.30;2.20;;;17.20;58.00;;;;;;636788;225;26579;-70
2022/07/03 03:05:48;;;;;;;2.05;1.95;;;17.20;57.80;;;;;;636696;224;26787;-70
2022/07/03 03:08:19;;;;;;;1.85;1.75;;;17.10;58.20;;;;;;637285;225;26575;-70
2022/07/03 03:10:44;;;;;;;1.90;1.80;;;17.10;58.00;;;;;;637123;223;27263;-69
2022/07/03 03:13:13;;;;;;;1.95;1.85;;;17.10;58.40;;;;;;637389;224;26536;-69
2022/07/03 03:15:40;;;;;;;2.28;2.17;;;17.10;58.00;;;;;;637388;224;26550;-70
2022/07/03 03:18:08;;;;;;;2.17;2.03;;;17.10;59.10;;;;;;636319;225;26572;-69
2022/07/03 03:20:36;;;;;;;2.20;2.10;;;17.10;59.70;;;;;;638318;223;26594;-69
2022/07/03 03:23:09;;;;;;;2.42;2.30;;;17.10;59.20;;;;;;638724;224;26519;-69
2022/07/03 03:25:37;;;;;;;2.00;1.90;;;17.10;59.00;;;;;;638424;224;26528;-69
2022/07/03 03:28:04;;;;;;;2.12;1.92;;;17.10;59.00;;;;;;638392;224;26546;-69
2022/07/03 03:30:31;;;;;;;2.00;1.90;;;17.10;58.60;;;;;;638067;224;26530;-69
2022/07/03 03:32:58;;;;;;;1.92;1.83;;;17.20;58.90;;;;;;638060;225;26782;-69
2022/07/03 03:35:26;;;;;;;2.40;2.20;;;17.20;58.60;;;;;;638015;224;26516;-69
2022/07/03 03:37:53;;;;;;;1.70;1.70;;;17.20;58.00;;;;;;637970;224;26735;-69
2022/07/03 03:40:21;;;;;;;2.33;2.12;;;17.30;58.20;;;;;;637739;223;26816;-69
2022/07/03 03:42:48;;;;;;;2.03;1.92;;;17.30;58.00;;;;;;637778;224;26551;-69
2022/07/03 03:45:15;;;;;;;2.10;2.00;;;17.30;58.50;;;;;;637743;224;26791;-69
2022/07/03 03:47:42;;;;;;;2.30;2.20;;;17.30;58.50;;;;;;637789;223;26520;-69
2022/07/03 03:50:10;;;;;;;2.62;1.98;;;17.40;58.10;;;;;;637728;224;26874;-69
2022/07/03 03:52:37;;;;;;;2.17;2.08;;;17.40;58.10;;;;;;637725;224;26562;-69
2022/07/03 03:55:05;;;;;;;2.00;1.90;;;17.40;57.90;;;;;;637725;224;26785;-69
2022/07/03 03:57:32;;;;;;;2.70;2.50;;;17.40;58.00;;;;;;637371;225;26559;-69
2022/07/03 03:59:59;;;;;;;2.40;2.30;;;17.40;57.80;;;;;;637436;224;26807;-69
2022/07/03 04:02:26;;;;;;;2.17;2.08;;;17.40;58.50;;;;;;637468;225;26583;-69
2022/07/03 04:04:53;;;;;;;1.85;1.75;;;17.50;58.20;;;;;;637423;224;26848;-69
2022/07/03 04:07:21;;;;;;;2.00;1.90;;;17.50;58.10;;;;;;637384;224;26559;-69
2022/07/03 04:09:48;;;;;;;2.40;2.20;;;17.50;58.10;;;;;;637432;224;26829;-69
2022/07/03 04:12:15;;;;;;;1.98;1.87;;;17.60;58.60;;;;;;637471;224;26591;-69
2022/07/03 04:14:42;;;;;;;2.20;2.10;;;17.60;58.40;;;;;;637450;224;26758;-70
2022/07/03 04:17:10;;;;;;;2.45;2.35;;;17.70;59.40;;;;;;637339;225;26600;-70
2022/07/03 04:19:38;;;;;;;2.28;2.10;;;17.80;58.10;;;;;;637385;223;26593;-69
2022/07/03 04:22:08;;;;;;;2.40;2.20;;;17.80;58.40;;;;;;637432;225;26619;-69
2022/07/03 04:24:34;;;;;;;1.98;1.87;;;17.90;58.10;;;;;;637301;224;26536;-69
2022/07/03 04:27:01;;;;;;;2.37;2.17;;;17.90;58.10;;;;;;637410;224;26544;-69
2022/07/03 04:29:28;;;;;;;2.47;2.37;;;18.00;58.20;;;;;;637368;224;26579;-69
2022/07/03 04:31:56;;;;;;;2.50;2.40;;;18.00;57.70;;;;;;638383;223;26823;-69
2022/07/03 04:34:23;;;;;;;2.00;1.90;;;18.10;58.10;;;;;;638820;224;26534;-69
2022/07/03 04:36:50;;;;;;;2.30;2.20;;;18.20;57.80;;;;;;638546;223;26753;-69
2022/07/03 04:39:18;;;;;;;1.92;1.85;;;18.20;57.80;;;;;;638319;224;26556;-70
2022/07/03 04:41:45;;;;;;;2.12;1.98;;;18.30;57.50;;;;;;638084;224;26511;-69
2022/07/03 04:44:13;;;;;;;2.40;2.20;;;18.40;57.50;;;;;;638082;224;26543;-70
2022/07/03 04:46:40;;;;;;;1.92;1.83;;;18.40;57.50;;;;;;638024;223;26681;-70
2022/07/03 04:49:07;;;;;;;2.10;2.00;;;18.50;57.50;;;;;;637955;224;26491;-70
2022/07/03 04:51:34;;;;;;;1.70;1.70;;;18.50;57.30;;;;;;637770;224;26798;-70
2022/07/03 04:54:02;;;;;;;1.90;1.80;;;18.60;57.30;;;;;;637799;224;26591;-70
2022/07/03 04:56:29;;;;;;;2.37;2.17;;;18.70;58.20;;;;;;637778;225;26757;-71
2022/07/03 04:58:56;;;;;;;1.90;1.80;;;18.80;57.30;;;;;;637674;224;26595;-71
2022/07/03 05:01:23;;;;;;;2.20;2.10;;;18.90;57.30;;;;;;637786;224;26784;-70
2022/07/03 05:03:50;;;;;;;2.35;2.15;;;19.00;57.20;;;;;;637740;224;26564;-70
2022/07/03 05:06:17;;;;;;;2.15;2.05;;;19.10;56.70;;;;;;637785;224;26747;-70
2022/07/03 05:08:45;;;;;;;2.03;1.92;;;19.20;57.30;;;;;;637478;224;26566;-70
2022/07/03 05:11:12;;;;;;;2.03;1.92;;;19.30;56.50;;;;;;637420;224;26801;-70
2022/07/03 05:13:40;;;;;;;2.40;2.22;;;19.50;56.20;;;;;;637400;225;26577;-70
2022/07/03 05:16:07;;;;;;;2.25;2.15;;;19.50;56.20;;;;;;637407;226;26560;-70
2022/07/03 05:18:35;;;;;;;2.03;1.92;;;19.60;56.40;;;;;;637386;224;26867;-69
2022/07/03 05:21:02;;;;;;;2.12;2.03;;;19.60;55.70;;;;;;637456;224;26569;-69
2022/07/03 05:23:30;;;;;;;2.20;2.10;;;19.80;55.50;;;;;;637478;223;26868;-70
2022/07/03 05:25:58;;;;;;;2.40;2.30;;;19.80;55.50;;;;;;637400;224;27228;-69
2022/07/03 05:28:25;;;;;;;1.70;1.70;;;19.90;55.60;;;;;;637330;224;26565;-69
2022/07/03 05:30:52;;;;;;;2.10;2.00;;;20.00;55.80;;;;;;637467;223;26595;-69
2022/07/03 05:33:20;;;;;;;2.00;1.90;;;20.30;55.70;;;;;;637472;224;26566;-69
2022/07/03 05:35:48;;;;;;;2.15;1.90;;;20.40;54.50;;;;;;637457;224;26561;-69
2022/07/03 05:39:31;;;;;;;2.10;2.00;;;20.40;54.50;;;;;;637398;225;26576;-69
2022/07/03 05:40:42;;;;;;;2.10;2.00;;;20.40;54.20;;;;;;635535;226;26585;-69
2022/07/03 05:43:10;;;;;;;2.10;2.00;;;20.70;54.20;;;;;;638064;223;26834;-69
2022/07/03 05:45:38;;;;;;;2.35;2.25;;;20.80;53.60;;;;;;638950;224;26790;-69
2022/07/03 05:48:06;;;;;;;2.62;2.25;;;20.80;53.60;;;;;;638553;224;27171;-73
2022/07/03 05:50:33;;;;;;;2.10;2.00;;;20.90;53.70;;;;;;638377;223;26587;-70
2022/07/03 05:53:00;;;;;;;2.25;2.15;;;21.00;53.10;;;;;;638229;224;26558;-69
2022/07/03 05:55:28;;;;;;;1.98;1.87;;;21.20;53.20;;;;;;638056;224;26512;-70
2022/07/03 05:57:56;;;;;;;2.05;1.95;;;21.30;53.30;;;;;;638030;224;26514;-70
2022/07/03 06:00:24;;;;;;;2.33;2.12;;;21.50;52.80;;;;;;638030;224;26543;-70
2022/07/03 06:02:52;;;;;;;1.83;1.73;;;21.60;52.60;;;;;;637751;224;26606;-70
2022/07/03 06:05:19;;;;;;;2.33;2.15;;;21.50;52.10;;;;;;637711;224;26596;-70
2022/07/03 06:07:46;;;;;;;2.85;2.12;;;21.70;52.00;;;;;;637728;224;26609;-71
2022/07/03 06:10:14;;;;;;;2.40;2.20;;;21.90;51.60;;;;;;637765;223;26831;-70
2022/07/03 06:12:41;;;;;;;2.17;2.08;;;21.90;51.50;;;;;;637764;225;26770;-70
2022/07/03 06:15:09;;;;;;;2.00;1.90;;;22.00;51.00;;;;;;637801;224;26554;-70
2022/07/03 06:17:36;;;;;;;2.00;1.90;;;22.10;51.10;;;;;;637704;225;26607;-71
2022/07/03 06:20:04;;;;;;;1.92;1.83;;;22.20;50.90;;;;;;637570;224;26811;-70
2022/07/03 06:22:32;;;;;;;1.90;1.80;;;22.30;50.20;;;;;;637431;226;26539;-70
2022/07/03 06:24:59;;;;;;;1.83;1.73;;;22.30;50.40;;;;;;637446;224;26772;-71
2022/07/03 06:27:26;;;;;;;1.90;1.80;;;22.50;49.80;;;;;;637363;226;26584;-70
2022/07/03 06:29:53;;;;;;;2.00;1.90;;;22.60;49.60;;;;;;637437;224;26798;-70
2022/07/03 06:32:20;;;;;;;2.08;1.90;;;22.70;49.50;;;;;;637434;224;26571;-71
2022/07/03 06:34:48;;;;;;;1.70;1.70;;;22.80;49.40;;;;;;637371;225;26782;-70
2022/07/03 06:37:15;;;;;;;1.90;1.80;;;22.90;49.60;;;;;;637322;224;26562;-70
2022/07/03 06:39:42;;;;;;;2.10;2.00;;;23.00;48.80;;;;;;637419;224;26591;-70
2022/07/03 06:42:10;;;;;;;2.05;1.95;;;23.20;48.70;;;;;;637392;224;26580;-71
2022/07/03 06:44:38;;;;;;;3.25;1.62;;;23.20;48.70;;;;;;637412;225;26568;-71
2022/07/03 06:47:06;;;;;;;1.62;1.62;;;23.20;48.70;;;;;;637446;224;26568;-71
2022/07/03 06:49:33;;;;;;;1.67;1.58;;;23.30;47.90;;;;;;637394;224;27260;-70
2022/07/03 06:52:00;;;;;;;2.37;2.28;;;23.40;47.70;;;;;;637452;225;26556;-70
2022/07/03 06:54:27;;;;;;;1.73;1.70;;;23.50;47.80;;;;;;637862;223;26809;-70
2022/07/03 06:56:55;;;;;;;1.42;1.42;;;23.60;48.90;;;;;;639094;223;26567;-70
2022/07/03 06:59:22;;;;;;;1.87;1.77;;;23.70;48.90;;;;;;638577;224;27069;-71
2022/07/03 07:01:50;;;;;;;1.40;1.40;;;23.90;49.10;;;;;;638367;224;26559;-70
2022/07/03 07:04:18;;;;;;;1.75;1.65;;;23.90;47.60;;;;;;638217;224;26555;-70
2022/07/03 07:06:45;;;;;;;1.95;1.85;;;23.90;47.60;;;;;;638027;223;26487;-71
2022/07/03 07:09:13;;;;;;;1.77;1.70;;;24.10;48.30;;;;;;638039;224;26516;-70
2022/07/03 07:11:41;;;;;;;1.87;1.77;;;24.10;47.80;;;;;;637998;224;26765;-70
2022/07/03 07:14:09;;;;;;;1.70;1.60;;;24.30;47.80;;;;;;637766;224;26574;-70
2022/07/03 07:16:37;;;;;;;1.70;1.60;;;24.40;47.40;;;;;;637705;224;26551;-70
2022/07/03 07:19:05;;;;;;;1.40;1.40;;;24.50;47.00;;;;;;637721;224;26560;-70
2022/07/03 07:21:33;;;;;;;1.70;1.60;;;24.50;47.00;;;;;;637752;224;26597;-71
2022/07/03 07:24:00;;;;;;;1.85;1.65;;;24.50;46.90;;;;;;637784;224;26570;-70
2022/07/03 07:26:27;;;;;;;1.52;1.50;;;24.60;46.90;;;;;;637739;224;26532;-70
2022/07/03 07:28:54;;;;;;;1.70;1.60;;;24.70;46.70;;;;;;629679;225;26850;-70
2022/07/03 07:31:22;;;;;;;1.70;1.60;;;24.80;46.70;;;;;;637544;224;26586;-70
2022/07/03 07:33:50;;;;;;;1.80;1.70;;;24.90;46.30;;;;;;637462;224;26785;-70
2022/07/03 07:36:17;;;;;;;1.70;1.60;;;24.90;46.30;;;;;;637437;224;26794;-70
2022/07/03 07:38:44;;;;;;;1.77;1.67;;;25.00;46.80;;;;;;637499;224;26576;-71
2022/07/03 07:41:11;;;;;;;1.40;1.40;;;25.00;46.30;;;;;;637344;224;26816;-70
2022/07/03 07:43:38;;;;;;;1.90;1.80;;;25.10;45.90;;;;;;637433;224;26575;-71
2022/07/03 07:46:06;;;;;;;1.95;1.50;;;25.20;46.00;;;;;;637396;224;26766;-71
2022/07/03 07:48:34;;;;;;;1.60;1.52;;;25.30;46.20;;;;;;637342;224;26568;-70
2022/07/03 07:51:02;;;;;;;1.60;1.60;;;25.40;45.80;;;;;;637344;226;26608;-70
2022/07/03 07:53:30;;;;;;;1.70;1.60;;;25.40;45.60;;;;;;637425;226;26832;-70
2022/07/03 07:55:57;;;;;;;1.70;1.60;;;25.50;45.70;;;;;;637399;226;26894;-70
2022/07/03 07:58:24;;;;;;;1.92;1.83;;;25.60;45.50;;;;;;637422;224;26537;-70
2022/07/03 08:05:57;;;;;;;1.60;1.60;;;25.60;44.30;;;;;;637827;223;26600;-70
2022/07/03 08:08:24;;;;;;;1.62;1.52;;;25.60;44.70;;;;;;639005;224;26800;-70
2022/07/03 08:10:51;;;;;;;1.65;1.58;;;25.60;44.20;;;;;;638629;223;26538;-70
2022/07/03 08:13:19;;;;;;;1.52;1.37;;;25.70;43.90;;;;;;638416;224;26800;-70
2022/07/03 08:15:48;;;;;;;1.45;1.40;;;25.70;44.00;;;;;;638258;225;26566;-70
2022/07/03 08:18:16;;;;;;;1.62;1.52;;;25.70;43.90;;;;;;638093;224;26518;-69
2022/07/03 08:20:43;;;;;;;1.37;1.37;;;25.80;43.70;;;;;;638106;224;26766;-69
2022/07/03 08:23:11;;;;;;;1.70;1.60;;;26.00;43.40;;;;;;638161;224;26514;-69
2022/07/03 08:25:39;;;;;;;1.33;1.33;;;26.10;43.20;;;;;;637866;224;26562;-69
2022/07/03 08:28:07;;;;;;;1.30;1.30;;;26.10;43.50;;;;;;637803;224;26558;-69
2022/07/03 08:30:34;;;;;;;1.70;1.60;;;26.10;43.60;;;;;;637759;224;26583;-70
2022/07/03 08:33:02;;;;;;;1.87;1.77;;;26.00;43.10;;;;;;637824;225;26580;-73
2022/07/03 08:35:30;;;;;;;1.48;1.37;;;26.00;43.10;;;;;;637766;224;26784;-73
2022/07/03 08:37:57;;;;;;;1.30;1.30;;;26.00;43.50;;;;;;637713;224;26560;-73
2022/07/03 08:40:25;;;;;;;1.60;1.50;;;26.00;43.30;;;;;;637760;225;26936;-73
2022/07/03 08:42:53;;;;;;;1.73;1.62;;;26.00;42.80;;;;;;637557;225;26564;-72
2022/07/03 08:45:20;;;;;;;1.40;1.40;;;26.00;42.70;;;;;;637052;225;26572;-72
2022/07/03 08:47:48;;;;;;;1.58;1.55;;;26.00;42.80;;;;;;637348;225;26582;-72
2022/07/03 08:50:15;;;;;;;1.50;1.50;;;26.00;42.70;;;;;;637581;221;26628;-73
2022/07/03 08:52:43;;;;;;;1.37;1.23;;;26.10;42.60;;;;;;639080;221;26488;-73
2022/07/03 08:55:10;;;;;;;1.42;1.42;;;26.10;42.70;;;;;;638665;225;26518;-73
2022/07/03 08:57:38;;;;;;;1.40;1.30;;;26.00;42.30;;;;;;644263;221;26801;-73
2022/07/03 09:00:05;;;;;;;1.23;1.23;;;26.10;42.80;;;;;;643452;221;26543;-72
2022/07/03 09:02:33;;;;;;;2.85;1.37;;;26.10;43.10;;;;;;644461;221;26491;-72
2022/07/03 09:05:03;;;;;;;1.08;1.08;;;26.10;43.10;;;;;;637944;224;26502;-72
2022/07/03 09:07:31;;;;;;;1.33;1.23;;;26.10;43.10;;;;;;640320;221;26786;-73
2022/07/03 09:09:59;;;;;;;1.27;1.27;;;26.10;42.40;;;;;;650626;218;26506;-73
2022/07/03 09:12:26;;;;;;;1.25;1.25;;;26.10;42.40;;;;;;644038;221;26567;-71
2022/07/03 09:14:53;;;;;;;1.40;1.30;;;26.10;42.50;;;;;;638534;224;26577;-76
2022/07/03 09:17:20;;;;;;;1.20;1.10;;;26.10;42.80;;;;;;648658;221;26751;-75
2022/07/03 09:19:47;;;;;;;1.27;1.20;;;26.20;42.00;;;;;;639554;223;26584;-76
2022/07/03 09:22:26;;;;;;;1.30;1.30;;;26.20;41.90;;;;;;639262;225;26739;-75
2022/07/03 09:24:54;;;;;;;1.00;1.00;;;26.20;41.80;;;;;;647636;221;26572;-75
2022/07/03 09:27:21;;;;;;;1.27;1.27;;;26.30;42.50;;;;;;638900;221;27261;-76
2022/07/03 09:29:58;;;;;;;1.25;1.15;;;26.40;41.60;;;;;;638759;222;26571;-76
2022/07/03 09:32:24;;;;;;;1.17;1.17;;;26.30;41.50;;;;;;642109;221;26597;-76
2022/07/03 09:34:51;;;;;;;1.00;1.00;;;26.40;41.80;;;;;;649490;221;27223;-75
2022/07/03 09:37:31;;;;;;;1.70;1.60;;;26.40;41.80;;;;;;637715;225;26470;-75
2022/07/03 09:39:56;;;;;;;1.00;1.00;;;26.40;41.90;;;;;;643622;221;26543;-75
2022/07/03 09:42:23;;;;;;;1.10;1.10;;;26.40;41.70;;;;;;643111;221;26894;-74
2022/07/03 09:44:51;;;;;;;1.52;1.40;;;26.50;41.50;;;;;;638849;225;26601;-75
2022/07/03 09:47:22;;;;;;;1.10;1.10;;;26.50;42.40;;;;;;638802;221;26515;-74
2022/07/03 09:49:59;;;;;;;1.27;1.17;;;26.40;42.20;;;;;;642379;221;26597;-74
2022/07/03 09:52:42;;;;;;;1.20;1.10;;;26.60;41.40;;;;;;640853;222;26584;-74
2022/07/03 09:55:17;;;;;;;1.20;1.20;;;26.60;41.00;;;;;;644803;221;26557;-76
2022/07/03 09:57:46;;;;;;;1.10;1.10;;;26.70;42.30;;;;;;638528;225;27167;-75
2022/07/03 10:00:15;;;;;;;1.05;1.05;;;26.70;41.50;;;;;;644483;221;26752;-75
2022/07/03 10:03:03;;;;;;;1.12;1.12;;;26.80;41.60;;;;;;642304;221;26483;-75
2022/07/03 10:05:32;;;;;;;0.80;0.80;;;26.90;41.10;;;;;;648208;221;26463;-75
2022/07/03 10:08:01;;;;;;;1.40;1.30;;;26.90;40.50;;;;;;643681;221;26539;-76
2022/07/03 10:10:28;;;;;;;3.12;1.52;;;26.90;40.40;;;;;;639721;221;26565;-76
2022/07/03 10:12:55;;;;;;;7.10;2.95;;;26.90;40.30;;;;;;639281;224;26754;-76
2022/07/03 10:15:22;;;;;;;5.75;2.45;;;26.80;39.80;;;;;;638754;225;26518;-76
2022/07/03 10:17:50;;;;;;;2.75;1.58;;;26.90;39.50;;;;;;638186;225;26788;-77
2022/07/03 10:20:24;;;;;;;2.80;1.65;;;26.90;39.60;;;;;;638109;225;26534;-71
2022/07/03 10:22:51;;;;;;;2.25;1.95;;;26.90;41.60;;;;;;640571;220;26616;-76
2022/07/03 10:25:19;;;;;;;2.10;2.00;;;27.00;41.70;;;;;;642366;223;26592;-76
2022/07/03 10:27:47;;;;;;;2.00;1.90;;;26.90;41.30;;;;;;637645;221;26772;-75
2022/07/03 10:30:16;;;;;;;2.00;1.90;;;27.00;41.40;;;;;;646362;217;26755;-76
2022/07/03 10:32:45;;;;;;;2.20;2.00;;;27.20;41.80;;;;;;652253;220;26575;-76
2022/07/03 10:35:12;;;;;;;2.15;1.95;;;27.10;42.00;;;;;;640551;220;26563;-76
2022/07/03 10:37:53;;;;;;;2.80;2.20;;;27.10;41.00;;;;;;638263;225;26572;-78
2022/07/03 10:45:31;;;;;;;1.62;1.52;;;27.40;40.80;;;;;;639278;224;26575;-72
2022/07/03 10:47:58;;;;;;;1.98;1.87;;;27.40;40.80;;;;;;642195;222;26513;-74
2022/07/03 10:50:26;;;;;;;1.70;1.70;;;27.50;40.30;;;;;;649384;219;26564;-74
2022/07/03 10:52:54;;;;;;;1.52;1.52;;;27.60;40.60;;;;;;640326;221;26591;-73
2022/07/03 10:55:22;;;;;;;1.20;1.20;;;27.60;39.70;;;;;;635343;225;26481;-70
2022/07/03 10:58:02;;;;;;;1.30;1.25;;;27.60;39.70;;;;;;642378;221;26793;-72
2022/07/03 11:00:29;;;;;;;1.58;1.45;;;27.70;40.00;;;;;;642092;222;26840;-71
2022/07/03 11:02:56;;;;;;;2.10;2.00;;;27.80;39.70;;;;;;638826;223;26568;-72
2022/07/03 11:05:23;;;;;;;1.80;1.70;;;27.80;40.20;;;;;;651167;220;26549;-71
2022/07/03 11:08:06;;;;;;;2.58;2.20;;;28.00;41.20;;;;;;642919;221;26513;-74
2022/07/03 11:10:34;;;;;;;2.35;1.98;;;28.00;41.10;;;;;;642630;221;26548;-74
2022/07/03 11:13:03;;;;;;;2.00;1.90;;;28.00;40.40;;;;;;648862;221;26735;-72
2022/07/03 11:15:38;;;;;;;3.85;2.37;;;28.10;40.50;;;;;;640839;221;26989;-76
2022/07/03 11:18:10;;;;;;;2.92;1.87;;;28.30;40.30;;;;;;644835;221;26773;-75
2022/07/03 11:21:07;;;;;;;1.60;1.50;;;28.50;40.30;;;;;;637720;224;26973;-74
2022/07/03 11:23:34;;;;;;;81.85;17.62;;;28.50;39.90;;;;;;648493;220;26572;-70
2022/07/03 11:26:23;;;;;;;100.70;23.55;;;28.60;39.90;;;;;;637649;222;26516;-69
2022/07/03 11:28:50;;;;;;;62.50;14.95;;;28.50;39.80;;;;;;647417;221;26557;-72
2022/07/03 11:31:17;;;;;;;30.85;9.40;;;28.70;39.70;;;;;;638220;223;26614;-73
2022/07/03 11:34:01;;;;;;;15.02;4.57;;;28.70;40.10;;;;;;638103;224;26594;-73
2022/07/03 11:36:30;;;;;;;10.18;4.03;;;28.90;39.60;;;;;;638126;225;26570;-74
2022/07/03 11:39:12;;;;;;;5.22;2.50;;;28.90;38.60;;;;;;638872;224;26600;-74
2022/07/03 11:41:43;;;;;;;2.30;2.10;;;28.90;38.50;;;;;;640026;223;26551;-74
2022/07/03 11:44:09;;;;;;;2.35;1.60;;;28.80;39.00;;;;;;640041;224;26479;-74
2022/07/03 11:46:37;;;;;;;2.05;1.90;;;28.80;39.40;;;;;;640107;223;26512;-74
2022/07/03 11:49:06;;;;;;;1.83;1.73;;;28.90;38.90;;;;;;639937;224;26572;-73
2022/07/03 11:51:34;;;;;;;1.85;1.75;;;28.80;38.50;;;;;;639464;224;26521;-74
2022/07/03 11:54:02;;;;;;;2.80;1.67;;;28.60;39.50;;;;;;639546;224;26523;-73
2022/07/03 11:56:29;;;;;;;1.90;1.80;;;28.50;38.90;;;;;;639595;224;26522;-74
2022/07/03 11:58:58;;;;;;;1.45;1.40;;;28.50;38.90;;;;;;639537;224;26515;-73
2022/07/03 12:01:40;;;;;;;2.12;1.52;;;28.40;38.50;;;;;;639275;224;26734;-75
2022/07/03 12:04:15;;;;;;;1.30;1.30;;;29.20;37.60;;;;;;639273;225;26506;-74
2022/07/03 12:06:48;;;;;;;2.33;1.30;;;29.10;37.50;;;;;;639311;225;26574;-74
2022/07/03 12:09:17;;;;;;;1.50;1.40;;;29.80;38.90;;;;;;639270;224;26531;-74
2022/07/03 12:11:51;;;;;;;1.25;1.20;;;29.80;38.90;;;;;;639272;224;26517;-74
2022/07/03 12:14:18;;;;;;;1.40;1.37;;;30.10;36.80;;;;;;639280;224;26559;-74
2022/07/03 12:16:45;;;;;;;1.80;1.70;;;30.40;36.10;;;;;;638299;224;26712;-74
2022/07/03 12:19:13;;;;;;;1.77;1.67;;;30.80;37.90;;;;;;638942;224;26558;-74
2022/07/03 12:21:40;;;;;;;2.30;2.03;;;31.10;35.20;;;;;;638961;223;27066;-75
2022/07/03 12:24:09;;;;;;;1.80;1.70;;;31.20;36.10;;;;;;638991;219;26563;-74
2022/07/03 12:26:36;;;;;;;1.73;1.60;;;31.50;35.40;;;;;;638952;224;26559;-75
2022/07/03 12:29:07;;;;;;;1.67;1.58;;;32.70;35.90;;;;;;638966;224;26559;-75
2022/07/03 12:31:34;;;;;;;1.60;1.52;;;32.70;36.00;;;;;;638351;224;26563;-74
2022/07/03 12:34:02;;;;;;;3.35;1.77;;;33.80;33.60;;;;;;638971;224;26573;-74
2022/07/03 12:36:29;;;;;;;1.95;1.60;;;33.70;33.50;;;;;;638982;224;26809;-75
2022/07/03 12:38:56;;;;;;;1.77;1.67;;;34.10;32.20;;;;;;638934;224;26557;-74
2022/07/03 12:41:24;;;;;;;1.45;1.45;;;34.40;31.50;;;;;;639210;224;26797;-74
2022/07/03 12:43:51;;;;;;;1.73;1.62;;;34.30;31.90;;;;;;638880;224;26571;-74
2022/07/03 12:46:21;;;;;;;3.83;1.60;;;34.30;31.20;;;;;;639024;224;26774;-74
2022/07/03 12:48:50;;;;;;;1.60;1.50;;;34.40;31.10;;;;;;638967;224;26596;-75
2022/07/03 12:51:17;;;;;;;2.50;2.20;;;34.60;30.70;;;;;;638973;225;26579;-73
2022/07/03 12:53:44;;;;;;;1.17;1.17;;;34.60;30.90;;;;;;640337;223;26763;-74
2022/07/03 12:56:12;;;;;;;1.40;1.30;;;34.30;31.30;;;;;;638859;224;26907;-74
2022/07/03 13:01:26;;;;;;;1.70;1.60;;;34.60;31.20;;;;;;639914;223;26552;-74
2022/07/03 13:03:53;;;;;;;1.55;1.48;;;35.10;31.40;;;;;;639613;224;27162;-74
2022/07/03 13:06:20;;;;;;;1.62;1.52;;;35.90;31.60;;;;;;639643;224;26518;-74